Time;durP1;ratioP1;P1;durP2;ratioP2;P2;SDS_P1;SDS_P2;PMS_P1;PMS_P2;Temp;Humidity;BMP_temperature;BMP_pressure;BME280_temperature;BME280_humidity;BME280_pressure;Samples;Min_cycle;Max_cycle;Signal;HPM_P1;HPM_P2
2021/04/17 00:02:08;;;;;;;;;;;11.10;29.10;;;;;;5030885;28;77049;-63
2021/04/17 00:04:37;;;;;;;;;;;11.00;29.00;;;;;;5032407;28;75152;-65
2021/04/17 00:07:02;;;;;;;;;;;10.90;29.10;;;;;;5032460;28;75298;-68
2021/04/17 00:09:28;;;;;;;;;;;10.90;29.40;;;;;;5032831;28;74376;-63
2021/04/17 00:11:55;;;;;;;;;;;10.90;29.40;;;;;;5032421;28;75136;-66
2021/04/17 00:14:29;;;;;;;;;;;10.80;29.70;;;;;;5031079;28;75611;-64
2021/04/17 00:16:56;;;;;;;;;;;10.70;29.70;;;;;;5032851;28;74455;-63
2021/04/17 00:19:21;;;;;;;;;;;10.80;29.80;;;;;;5030818;28;76271;-64
2021/04/17 00:21:47;;;;;;;;;;;10.70;30.10;;;;;;5032248;28;75091;-62
2021/04/17 00:24:12;;;;;;;;;;;10.70;30.20;;;;;;5030886;28;76595;-62
2021/04/17 00:26:38;;;;;;;;;;;10.60;30.50;;;;;;5030985;28;74700;-71
2021/04/17 00:29:07;;;;;;;;;;;10.60;30.50;;;;;;5030719;28;77136;-62
2021/04/17 00:31:33;;;;;;;;;;;10.50;30.60;;;;;;5032788;28;75131;-67
2021/04/17 00:33:59;;;;;;;;;;;10.40;30.70;;;;;;5034385;28;75096;-63
2021/04/17 00:36:25;;;;;;;;;;;10.40;30.90;;;;;;5036547;28;74438;-63
2021/04/17 00:38:50;;;;;;;;;;;10.30;31.10;;;;;;5034732;28;75527;-62
2021/04/17 00:41:16;;;;;;;;;;;10.20;31.10;;;;;;5034376;28;77398;-63
2021/04/17 00:43:42;;;;;;;;;;;10.20;31.30;;;;;;5036105;28;74429;-62
2021/04/17 00:46:08;;;;;;;;;;;10.10;31.50;;;;;;5036517;28;74500;-67
2021/04/17 00:48:33;;;;;;;;;;;10.00;31.40;;;;;;5035078;28;78084;-63
2021/04/17 00:50:59;;;;;;;;;;;10.00;31.50;;;;;;5036623;28;74561;-69
2021/04/17 00:53:25;;;;;;;;;;;9.90;31.90;;;;;;5036549;28;75086;-64
2021/04/17 00:55:51;;;;;;;;;;;9.90;31.90;;;;;;5037188;28;74383;-64
2021/04/17 00:58:16;;;;;;;;;;;9.90;32.00;;;;;;5035184;28;76130;-63
2021/04/17 01:00:42;;;;;;;;;;;9.90;32.40;;;;;;5037197;28;75205;-62
2021/04/17 01:03:19;;;;;;;;;;;9.90;32.30;;;;;;5036503;28;77599;-61
2021/04/17 01:05:46;;;;;;;;;;;9.90;32.10;;;;;;5034827;28;77623;-63
2021/04/17 01:08:32;;;;;;;;;;;9.80;32.40;;;;;;5034499;28;77002;-64
2021/04/17 01:11:01;;;;;;;;;;;9.70;32.50;;;;;;5033949;28;75488;-62
2021/04/17 01:13:28;;;;;;;;;;;9.70;32.60;;;;;;5033572;28;94103;-61
2021/04/17 01:15:55;;;;;;;;;;;9.70;32.70;;;;;;5034393;28;76718;-62
2021/04/17 01:18:23;;;;;;;;;;;9.70;32.70;;;;;;5034460;28;75402;-64
2021/04/17 01:20:52;;;;;;;;;;;9.70;32.90;;;;;;5035999;28;74538;-64
2021/04/17 01:23:30;;;;;;;;;;;9.70;32.90;;;;;;5035861;28;75224;-62
2021/04/17 01:25:59;;;;;;;;;;;9.60;32.80;;;;;;5035908;28;75163;-65
2021/04/17 01:28:25;;;;;;;;;;;9.60;33.10;;;;;;5035875;28;75609;-65
2021/04/17 01:30:52;;;;;;;;;;;9.50;33.00;;;;;;5035701;28;75214;-62
2021/04/17 01:33:18;;;;;;;;;;;9.50;33.40;;;;;;5035221;28;75327;-63
2021/04/17 01:35:46;;;;;;;;;;;9.50;33.50;;;;;;5034210;28;77534;-62
2021/04/17 01:38:18;;;;;;;;;;;9.50;33.80;;;;;;5035401;28;75272;-66
2021/04/17 01:40:45;;;;;;;;;;;9.40;33.60;;;;;;5035735;28;74518;-65
2021/04/17 01:43:11;;;;;;;;;;;9.40;33.70;;;;;;5033799;28;75640;-64
2021/04/17 01:45:36;;;;;;;;;;;9.40;33.80;;;;;;5034665;28;76461;-62
2021/04/17 01:48:03;;;;;;;;;;;9.30;33.80;;;;;;5035481;28;74356;-66
2021/04/17 01:50:29;;;;;;;;;;;9.30;34.10;;;;;;5034757;28;75914;-64
2021/04/17 01:52:56;;;;;;;;;;;9.30;34.00;;;;;;5033990;28;77049;-69
2021/04/17 01:55:22;;;;;;;;;;;9.30;34.10;;;;;;5035315;28;75144;-62
2021/04/17 01:57:48;;;;;;;;;;;9.30;34.10;;;;;;5034658;28;76714;-61
2021/04/17 02:00:14;;;;;;;;;;;9.30;34.30;;;;;;5034296;28;77767;-62
2021/04/17 02:02:39;;;;;;;;;;;9.30;34.30;;;;;;5036082;28;76537;-62
2021/04/17 02:05:05;;;;;;;;;;;9.30;34.40;;;;;;5035285;28;74558;-62
2021/04/17 02:07:31;;;;;;;;;;;9.30;34.50;;;;;;5067216;27;77872;-64
2021/04/17 02:09:57;;;;;;;;;;;9.20;34.50;;;;;;5035097;28;74993;-65
2021/04/17 02:12:22;;;;;;;;;;;9.20;34.50;;;;;;5035276;28;75606;-64
2021/04/17 02:14:48;;;;;;;;;;;9.20;34.70;;;;;;5035526;28;75335;-62
2021/04/17 02:17:16;;;;;;;;;;;9.20;34.70;;;;;;5036032;28;74546;-63
2021/04/17 02:19:41;;;;;;;;;;;9.10;34.80;;;;;;5036963;28;75111;-62
2021/04/17 02:22:07;;;;;;;;;;;9.10;34.70;;;;;;5036483;28;75734;-62
2021/04/17 02:24:33;;;;;;;;;;;9.20;34.70;;;;;;5036127;28;75696;-70
2021/04/17 02:26:59;;;;;;;;;;;9.10;35.00;;;;;;5035046;28;75055;-63
2021/04/17 02:29:25;;;;;;;;;;;9.10;35.00;;;;;;5035829;28;76411;-72
2021/04/17 02:31:51;;;;;;;;;;;9.10;35.00;;;;;;5035030;28;74484;-65
2021/04/17 02:34:17;;;;;;;;;;;9.00;35.30;;;;;;5033226;28;78429;-65
2021/04/17 02:36:42;;;;;;;;;;;9.00;35.20;;;;;;5035225;28;75085;-71
2021/04/17 02:39:08;;;;;;;;;;;9.00;35.30;;;;;;5033525;28;77030;-65
2021/04/17 02:41:33;;;;;;;;;;;9.00;35.50;;;;;;5035248;28;75265;-62
2021/04/17 02:43:59;;;;;;;;;;;8.90;35.50;;;;;;5035390;28;75119;-67
2021/04/17 02:46:25;;;;;;;;;;;8.90;35.50;;;;;;5034868;28;75021;-65
2021/04/17 02:48:50;;;;;;;;;;;8.90;35.70;;;;;;5034094;28;78232;-63
2021/04/17 02:51:16;;;;;;;;;;;8.90;36.00;;;;;;5035339;28;76165;-65
2021/04/17 02:53:42;;;;;;;;;;;8.90;35.90;;;;;;5034806;28;75367;-64
2021/04/17 02:56:07;;;;;;;;;;;8.90;36.00;;;;;;5035140;28;74379;-68
2021/04/17 02:58:33;;;;;;;;;;;8.90;36.00;;;;;;5033233;28;74404;-63
2021/04/17 03:00:59;;;;;;;;;;;8.80;36.10;;;;;;5034409;28;76240;-65
2021/04/17 03:03:25;;;;;;;;;;;8.80;36.30;;;;;;5034656;28;75083;-63
2021/04/17 03:05:50;;;;;;;;;;;8.80;36.20;;;;;;5033911;28;74525;-63
2021/04/17 03:08:16;;;;;;;;;;;8.80;36.30;;;;;;5035074;28;75059;-72
2021/04/17 03:10:41;;;;;;;;;;;8.80;36.30;;;;;;5033282;28;77811;-67
2021/04/17 03:13:07;;;;;;;;;;;8.70;36.40;;;;;;5036122;28;75032;-68
2021/04/17 03:15:33;;;;;;;;;;;8.70;36.50;;;;;;5034279;28;75711;-66
2021/04/17 03:17:59;;;;;;;;;;;8.60;36.60;;;;;;5035167;28;75234;-66
2021/04/17 03:20:25;;;;;;;;;;;8.70;37.10;;;;;;5034247;28;78005;-68
2021/04/17 03:22:51;;;;;;;;;;;8.60;36.80;;;;;;5033800;28;76384;-68
2021/04/17 03:25:19;;;;;;;;;;;8.60;36.80;;;;;;5034595;28;77650;-67
2021/04/17 03:27:45;;;;;;;;;;;8.60;36.80;;;;;;5035450;28;74446;-73
2021/04/17 03:30:12;;;;;;;;;;;8.60;36.90;;;;;;5033004;28;75660;-70
2021/04/17 03:32:38;;;;;;;;;;;8.60;37.40;;;;;;5034780;28;75530;-74
2021/04/17 03:35:05;;;;;;;;;;;8.50;37.20;;;;;;5033724;28;77227;-73
2021/04/17 03:37:30;;;;;;;;;;;8.50;37.30;;;;;;5035092;28;74499;-72
2021/04/17 03:39:56;;;;;;;;;;;8.50;37.40;;;;;;5034672;28;75172;-66
2021/04/17 03:42:21;;;;;;;;;;;8.40;37.50;;;;;;5034650;28;75119;-67
2021/04/17 03:44:47;;;;;;;;;;;8.40;37.40;;;;;;5034534;28;74648;-74
2021/04/17 03:47:13;;;;;;;;;;;8.40;37.60;;;;;;5034788;28;74440;-74
2021/04/17 03:49:38;;;;;;;;;;;8.40;37.60;;;;;;5032801;28;75545;-67
2021/04/17 03:52:04;;;;;;;;;;;8.40;37.60;;;;;;5033862;28;75587;-70
2021/04/17 03:54:30;;;;;;;;;;;8.40;37.80;;;;;;5032802;28;74839;-73
2021/04/17 03:56:55;;;;;;;;;;;8.40;37.90;;;;;;5034967;28;75207;-71
2021/04/17 03:59:21;;;;;;;;;;;8.40;37.90;;;;;;5032738;28;76402;-69
2021/04/17 04:01:46;;;;;;;;;;;8.40;38.00;;;;;;5033748;28;75125;-69
2021/04/17 04:04:13;;;;;;;;;;;8.30;38.10;;;;;;5032736;28;77419;-71
2021/04/17 04:06:39;;;;;;;;;;;8.30;38.30;;;;;;5034277;28;74579;-68
2021/04/17 04:09:04;;;;;;;;;;;8.20;38.20;;;;;;5034034;28;75236;-69
2021/04/17 04:11:30;;;;;;;;;;;8.20;38.40;;;;;;5034462;28;74936;-70
2021/04/17 04:13:56;;;;;;;;;;;8.10;38.40;;;;;;5033769;28;75664;-73
2021/04/17 04:16:21;;;;;;;;;;;8.10;38.40;;;;;;5035050;28;74466;-64
2021/04/17 04:18:47;;;;;;;;;;;8.10;38.90;;;;;;5031945;28;76458;-62
2021/04/17 04:21:12;;;;;;;;;;;8.00;38.60;;;;;;5033944;28;75793;-70
2021/04/17 04:23:38;;;;;;;;;;;8.00;38.90;;;;;;5033509;28;75298;-65
2021/04/17 04:26:04;;;;;;;;;;;8.10;38.70;;;;;;5033281;28;75753;-68
2021/04/17 04:28:30;;;;;;;;;;;8.10;38.80;;;;;;5034396;28;75518;-71
2021/04/17 04:30:56;;;;;;;;;;;8.00;39.00;;;;;;5034624;28;74526;-66
2021/04/17 04:33:21;;;;;;;;;;;8.00;39.00;;;;;;5032581;28;77236;-69
2021/04/17 04:35:47;;;;;;;;;;;8.00;39.10;;;;;;5034398;28;74286;-62
2021/04/17 04:38:13;;;;;;;;;;;7.90;39.30;;;;;;5034304;28;74483;-65
2021/04/17 04:40:38;;;;;;;;;;;7.90;39.30;;;;;;5032748;28;76038;-62
2021/04/17 04:43:04;;;;;;;;;;;7.90;39.70;;;;;;5034083;28;75152;-71
2021/04/17 04:45:31;;;;;;;;;;;7.90;39.60;;;;;;5034493;28;75871;-64
2021/04/17 04:47:57;;;;;;;;;;;7.90;39.80;;;;;;5033693;28;75240;-66
2021/04/17 04:50:22;;;;;;;;;;;7.80;39.80;;;;;;5032385;28;77034;-61
2021/04/17 04:52:48;;;;;;;;;;;7.90;39.80;;;;;;5032203;28;77152;-61
2021/04/17 04:55:14;;;;;;;;;;;7.90;39.50;;;;;;5033718;28;74539;-64
2021/04/17 04:57:39;;;;;;;;;;;7.90;39.70;;;;;;5034170;28;75193;-67
2021/04/17 05:00:05;;;;;;;;;;;7.80;40.00;;;;;;5031734;28;76063;-74
2021/04/17 05:02:31;;;;;;;;;;;7.80;40.20;;;;;;5033212;28;74862;-69
2021/04/17 05:04:56;;;;;;;;;;;7.90;40.00;;;;;;5032661;28;75188;-64
2021/04/17 05:07:22;;;;;;;;;;;7.80;40.00;;;;;;5031655;28;75432;-72
2021/04/17 05:09:48;;;;;;;;;;;7.80;40.30;;;;;;5034912;28;74476;-69
2021/04/17 05:12:13;;;;;;;;;;;7.80;40.30;;;;;;5032359;28;76807;-68
2021/04/17 05:14:39;;;;;;;;;;;7.70;40.40;;;;;;5031446;28;76629;-66
2021/04/17 05:17:04;;;;;;;;;;;7.70;40.50;;;;;;5032568;28;74944;-64
2021/04/17 05:19:30;;;;;;;;;;;7.70;40.70;;;;;;5031292;28;74449;-70
2021/04/17 05:21:55;;;;;;;;;;;7.70;40.50;;;;;;5033543;28;77529;-70
2021/04/17 05:24:21;;;;;;;;;;;7.70;40.50;;;;;;5036127;28;75134;-66
2021/04/17 05:26:47;;;;;;;;;;;7.70;40.50;;;;;;5035882;28;75114;-67
2021/04/17 05:29:12;;;;;;;;;;;7.70;41.00;;;;;;5035485;28;75525;-64
2021/04/17 05:31:38;;;;;;;;;;;7.70;40.90;;;;;;5034105;28;77057;-68
2021/04/17 05:34:05;;;;;;;;;;;7.70;41.00;;;;;;5033975;28;77004;-66
2021/04/17 05:36:32;;;;;;;;;;;7.70;40.90;;;;;;5034458;28;78748;-70
2021/04/17 05:38:57;;;;;;;;;;;7.60;41.20;;;;;;5034132;28;77687;-67
2021/04/17 05:41:24;;;;;;;;;;;7.70;40.90;;;;;;5035823;28;74397;-63
2021/04/17 05:43:50;;;;;;;;;;;7.70;41.10;;;;;;5035752;28;75667;-69
2021/04/17 05:46:15;;;;;;;;;;;7.60;41.20;;;;;;5034030;28;77414;-63
2021/04/17 05:48:41;;;;;;;;;;;7.60;41.40;;;;;;5035945;28;75181;-65
2021/04/17 05:51:07;;;;;;;;;;;7.60;41.90;;;;;;5035954;28;74566;-64
2021/04/17 05:53:32;;;;;;;;;;;7.50;41.50;;;;;;5035523;28;75305;-62
2021/04/17 05:55:59;;;;;;;;;;;7.50;41.60;;;;;;5034378;28;78047;-65
2021/04/17 05:58:24;;;;;;;;;;;7.60;41.80;;;;;;5035067;28;75363;-64
2021/04/17 06:00:50;;;;;;;;;;;7.60;41.60;;;;;;5034168;28;75333;-65
2021/04/17 06:03:15;;;;;;;;;;;7.60;42.00;;;;;;5033377;28;75136;-62
2021/04/17 06:05:41;;;;;;;;;;;7.60;41.70;;;;;;5035101;28;75440;-62
2021/04/17 06:08:07;;;;;;;;;;;7.70;41.90;;;;;;5035200;28;75185;-64
2021/04/17 06:10:32;;;;;;;;;;;7.70;41.70;;;;;;5033560;28;77964;-62
2021/04/17 06:12:58;;;;;;;;;;;7.60;41.80;;;;;;5034702;28;75587;-66
2021/04/17 06:15:24;;;;;;;;;;;7.70;41.80;;;;;;5034661;28;75385;-67
2021/04/17 06:17:50;;;;;;;;;;;7.70;41.90;;;;;;5033524;28;77605;-67
2021/04/17 06:20:16;;;;;;;;;;;7.70;41.90;;;;;;5035426;28;74974;-64
2021/04/17 06:22:41;;;;;;;;;;;7.70;42.00;;;;;;5033584;28;77166;-65
2021/04/17 06:25:08;;;;;;;;;;;7.80;41.70;;;;;;5034915;28;75497;-63
2021/04/17 06:27:33;;;;;;;;;;;7.80;41.90;;;;;;5035232;28;75097;-63
2021/04/17 06:29:59;;;;;;;;;;;7.80;42.00;;;;;;5035037;28;76133;-65
2021/04/17 06:32:25;;;;;;;;;;;7.90;41.80;;;;;;5035249;28;76504;-65
2021/04/17 06:34:51;;;;;;;;;;;7.90;41.60;;;;;;5034821;28;76362;-67
2021/04/17 06:37:16;;;;;;;;;;;7.90;41.90;;;;;;5034007;28;78174;-71
2021/04/17 06:39:42;;;;;;;;;;;7.90;42.00;;;;;;5035721;28;74403;-69
2021/04/17 06:42:13;;;;;;;;;;;7.90;42.00;;;;;;5035765;28;74498;-65
2021/04/17 06:44:42;;;;;;;;;;;8.00;41.90;;;;;;5035618;28;74419;-64
2021/04/17 06:47:09;;;;;;;;;;;8.10;41.50;;;;;;5035158;28;74424;-71
2021/04/17 06:49:35;;;;;;;;;;;8.10;41.80;;;;;;5034664;28;74909;-68
2021/04/17 06:52:01;;;;;;;;;;;8.20;41.90;;;;;;5034869;28;75205;-68
2021/04/17 06:54:27;;;;;;;;;;;8.30;42.00;;;;;;5034821;28;75070;-69
2021/04/17 06:56:53;;;;;;;;;;;8.40;41.50;;;;;;5033164;28;75346;-64
2021/04/17 06:59:19;;;;;;;;;;;8.40;41.10;;;;;;5035439;28;74910;-73
2021/04/17 07:01:44;;;;;;;;;;;8.40;41.40;;;;;;5035912;28;75555;-62
2021/04/17 07:04:10;;;;;;;;;;;8.40;41.70;;;;;;5036709;28;74466;-62
2021/04/17 07:06:36;;;;;;;;;;;8.40;41.80;;;;;;5035037;28;74911;-69
2021/04/17 07:09:05;;;;;;;;;;;8.40;41.60;;;;;;5033091;28;77549;-67
2021/04/17 07:11:30;;;;;;;;;;;8.50;41.60;;;;;;5034514;28;75294;-65
2021/04/17 07:14:22;;;;;;;;;;;8.60;41.80;;;;;;5033154;28;75707;-64
2021/04/17 07:16:54;;;;;;;;;;;8.60;41.60;;;;;;5030345;28;77215;-67
2021/04/17 07:19:21;;;;;;;;;;;8.70;41.40;;;;;;5032659;28;74639;-64
2021/04/17 07:21:46;;;;;;;;;;;8.80;41.20;;;;;;5034367;28;75687;-69
2021/04/17 07:24:22;;;;;;;;;;;8.90;41.40;;;;;;5033175;28;75464;-61
2021/04/17 07:26:48;;;;;;;;;;;8.90;41.40;;;;;;5034267;28;75135;-68
2021/04/17 07:29:14;;;;;;;;;;;9.00;41.10;;;;;;5034019;28;74621;-66
2021/04/17 07:31:47;;;;;;;;;;;9.10;40.80;;;;;;5034213;28;75064;-63
2021/04/17 07:34:17;;;;;;;;;;;9.10;41.00;;;;;;5033792;28;75055;-63
2021/04/17 07:36:46;;;;;;;;;;;9.20;41.10;;;;;;5032479;28;77319;-67
2021/04/17 07:39:31;;;;;;;;;;;9.20;40.90;;;;;;5066576;27;77331;-73
2021/04/17 07:42:07;;;;;;;;;;;9.30;40.80;;;;;;5032196;28;76881;-65
2021/04/17 07:44:34;;;;;;;;;;;9.40;40.60;;;;;;5033293;28;75664;-66
2021/04/17 07:47:00;;;;;;;;;;;9.50;40.80;;;;;;5032368;28;77940;-61
2021/04/17 07:49:26;;;;;;;;;;;9.50;40.60;;;;;;5033976;28;74489;-62
2021/04/17 07:51:59;;;;;;;;;;;9.60;40.40;;;;;;5034284;28;75361;-74
2021/04/17 07:54:25;;;;;;;;;;;9.70;40.50;;;;;;5033748;28;78135;-75
2021/04/17 07:56:51;;;;;;;;;;;9.80;40.70;;;;;;5034045;28;78701;-74
2021/04/17 07:59:21;;;;;;;;;;;9.90;40.30;;;;;;5036188;28;74495;-73
2021/04/17 08:01:47;;;;;;;;;;;9.90;40.70;;;;;;5067466;27;75317;-75
2021/04/17 08:04:14;;;;;;;;;;;10.10;40.10;;;;;;5032952;28;76581;-74
2021/04/17 08:06:40;;;;;;;;;;;10.20;40.20;;;;;;5032275;28;74708;-75
2021/04/17 08:09:06;;;;;;;;;;;10.20;39.90;;;;;;5032561;28;75391;-74
2021/04/17 08:11:33;;;;;;;;;;;10.40;39.90;;;;;;5033871;28;75174;-74
2021/04/17 08:13:59;;;;;;;;;;;10.40;39.70;;;;;;5032552;28;77227;-75
2021/04/17 08:16:24;;;;;;;;;;;10.50;39.60;;;;;;5035076;28;75095;-72
2021/04/17 08:18:50;;;;;;;;;;;10.50;39.30;;;;;;5034771;28;74428;-75
2021/04/17 08:21:18;;;;;;;;;;;10.60;39.10;;;;;;5033728;28;75679;-74
2021/04/17 08:23:44;;;;;;;;;;;10.60;39.00;;;;;;5033049;28;77898;-74
2021/04/17 08:26:10;;;;;;;;;;;10.80;39.10;;;;;;5033089;28;76325;-75
2021/04/17 08:28:41;;;;;;;;;;;10.80;39.20;;;;;;5067306;27;76555;-75
2021/04/17 08:31:25;;;;;;;;;;;10.90;39.30;;;;;;5050129;28;74579;-75
2021/04/17 08:34:10;;;;;;;;;;;11.00;39.10;;;;;;5034863;28;75364;-75
2021/04/17 08:36:37;;;;;;;;;;;11.10;38.90;;;;;;5033200;28;76467;-76
2021/04/17 08:39:04;;;;;;;;;;;11.20;39.10;;;;;;5034442;28;74574;-75
2021/04/17 08:41:37;;;;;;;;;;;11.40;38.90;;;;;;5032964;28;75809;-75
2021/04/17 08:44:21;;;;;;;;;;;11.40;38.80;;;;;;5067159;27;74508;-75
2021/04/17 08:46:48;;;;;;;;;;;11.50;38.60;;;;;;5033640;28;75215;-74
2021/04/17 08:49:23;;;;;;;;;;;11.60;38.20;;;;;;5051672;28;75820;-73
2021/04/17 08:51:50;;;;;;;;;;;11.60;38.30;;;;;;5034812;28;76667;-76
2021/04/17 08:54:17;;;;;;;;;;;11.70;38.40;;;;;;5036920;28;74455;-75
2021/04/17 08:56:45;;;;;;;;;;;11.80;38.40;;;;;;5040024;28;74957;-73
2021/04/17 08:59:11;;;;;;;;;;;11.90;38.60;;;;;;5036950;28;77485;-75
2021/04/17 09:01:40;;;;;;;;;;;12.00;38.60;;;;;;5035440;28;75652;-73
2021/04/17 09:04:12;;;;;;;;;;;12.10;38.50;;;;;;5037187;28;75617;-74
2021/04/17 09:06:39;;;;;;;;;;;12.20;37.80;;;;;;5034550;28;75679;-75
2021/04/17 09:09:20;;;;;;;;;;;12.20;37.20;;;;;;5036758;28;74511;-74
2021/04/17 09:11:50;;;;;;;;;;;12.20;37.80;;;;;;5034754;28;75459;-74
2021/04/17 09:14:32;;;;;;;;;;;12.40;37.50;;;;;;5036791;28;75740;-75
2021/04/17 09:16:59;;;;;;;;;;;12.40;37.10;;;;;;5034409;28;74822;-74
2021/04/17 09:19:48;;;;;;;;;;;12.40;36.60;;;;;;5034271;28;77825;-74
2021/04/17 09:22:26;;;;;;;;;;;12.40;37.20;;;;;;5034445;28;75523;-74
2021/04/17 09:24:55;;;;;;;;;;;12.60;37.00;;;;;;5036009;28;75240;-75
2021/04/17 09:27:31;;;;;;;;;;;12.60;36.10;;;;;;5037036;28;74699;-77
2021/04/17 09:29:56;;;;;;;;;;;12.80;35.70;;;;;;5035720;28;78419;-77
2021/04/17 09:32:22;;;;;;;;;;;12.90;35.30;;;;;;5035270;28;78158;-75
2021/04/17 09:35:00;;;;;;;;;;;12.90;34.90;;;;;;5035062;28;75841;-75
2021/04/17 09:37:26;;;;;;;;;;;13.10;34.60;;;;;;5037119;28;75467;-74
2021/04/17 09:39:52;;;;;;;;;;;13.30;33.30;;;;;;5038424;28;75440;-75
2021/04/17 09:42:28;;;;;;;;;;;13.40;33.30;;;;;;5034931;28;74655;-76
2021/04/17 09:44:53;;;;;;;;;;;13.50;33.70;;;;;;5034913;28;76924;-74
2021/04/17 09:47:19;;;;;;;;;;;13.70;34.00;;;;;;5035626;28;75491;-77
2021/04/17 09:49:46;;;;;;;;;;;14.00;33.40;;;;;;5034335;28;75575;-73
2021/04/17 09:52:17;;;;;;;;;;;14.20;33.20;;;;;;5034070;28;76487;-75
2021/04/17 09:54:44;;;;;;;;;;;14.40;32.80;;;;;;5033154;28;75581;-74
2021/04/17 09:57:10;;;;;;;;;;;14.50;32.50;;;;;;5033011;28;75976;-77
2021/04/17 09:59:36;;;;;;;;;;;14.80;32.50;;;;;;5032367;28;77567;-73
2021/04/17 10:02:02;;;;;;;;;;;15.00;32.60;;;;;;5032716;28;75311;-75
2021/04/17 10:04:51;;;;;;;;;;;15.30;32.60;;;;;;5032516;28;75641;-74
2021/04/17 10:07:16;;;;;;;;;;;15.50;32.10;;;;;;5034202;28;74614;-76
2021/04/17 10:09:56;;;;;;;;;;;15.80;31.70;;;;;;5032236;28;77622;-75
2021/04/17 10:12:22;;;;;;;;;;;16.00;31.30;;;;;;5032542;28;75450;-74
2021/04/17 10:14:48;;;;;;;;;;;16.30;30.80;;;;;;5034585;28;74398;-74
2021/04/17 10:17:13;;;;;;;;;;;16.50;29.40;;;;;;5032818;28;75322;-75
2021/04/17 10:19:39;;;;;;;;;;;16.50;29.90;;;;;;5032572;28;76445;-75
2021/04/17 10:22:06;;;;;;;;;;;16.50;29.70;;;;;;5031976;28;77352;-76
2021/04/17 10:24:33;;;;;;;;;;;16.70;29.90;;;;;;5032461;28;75726;-74
2021/04/17 10:27:10;;;;;;;;;;;16.70;27.90;;;;;;5032612;28;78439;-77
2021/04/17 10:29:41;;;;;;;;;;;16.60;27.20;;;;;;5034393;28;75335;-76
2021/04/17 10:32:10;;;;;;;;;;;16.60;28.10;;;;;;5034055;28;75647;-79
2021/04/17 10:34:36;;;;;;;;;;;16.80;29.20;;;;;;5032441;28;77757;-75
2021/04/17 10:37:03;;;;;;;;;;;17.20;28.10;;;;;;5032656;28;76453;-75
2021/04/17 10:39:30;;;;;;;;;;;17.60;28.40;;;;;;5032524;28;78710;-76
2021/04/17 10:42:06;;;;;;;;;;;17.90;28.10;;;;;;5048960;28;77412;-73
2021/04/17 10:44:32;;;;;;;;;;;18.30;27.30;;;;;;5032217;28;76703;-77
2021/04/17 10:46:59;;;;;;;;;;;18.40;27.20;;;;;;5031875;28;77126;-76
2021/04/17 10:49:35;;;;;;;;;;;18.70;26.80;;;;;;5034094;28;74688;-76
2021/04/17 10:52:04;;;;;;;;;;;18.90;25.60;;;;;;5032453;28;77065;-77
2021/04/17 10:54:30;;;;;;;;;;;19.00;25.40;;;;;;5033934;28;74694;-74
2021/04/17 10:56:57;;;;;;;;;;;19.00;25.80;;;;;;5034078;28;75079;-74
2021/04/17 10:59:24;;;;;;;;;;;19.40;26.50;;;;;;5034240;28;75074;-75
2021/04/17 11:01:49;;;;;;;;;;;20.00;25.70;;;;;;5032431;28;74737;-74
2021/04/17 11:04:15;;;;;;;;;;;20.70;24.70;;;;;;5032658;28;75527;-76
2021/04/17 11:06:46;;;;;;;;;;;21.30;24.00;;;;;;5031981;28;78071;-76
2021/04/17 11:09:19;;;;;;;;;;;21.60;24.30;;;;;;5032452;28;75991;-75
2021/04/17 11:11:52;;;;;;;;;;;22.20;23.60;;;;;;5033107;28;75705;-73
2021/04/17 11:14:21;;;;;;;;;;;22.60;23.10;;;;;;5031367;28;77208;-77
2021/04/17 11:16:50;;;;;;;;;;;23.00;21.90;;;;;;5031373;28;77669;-74
2021/04/17 11:19:23;;;;;;;;;;;23.50;22.70;;;;;;5032816;28;74616;-78
2021/04/17 11:22:05;;;;;;;;;;;24.60;22.10;;;;;;5032114;28;78465;-74
2021/04/17 11:24:31;;;;;;;;;;;25.90;21.40;;;;;;5032141;28;76650;-79
2021/04/17 11:26:56;;;;;;;;;;;27.10;19.80;;;;;;5031844;28;77270;-77
2021/04/17 11:29:22;;;;;;;;;;;27.80;19.80;;;;;;5031618;28;78326;-77
2021/04/17 11:31:48;;;;;;;;;;;28.30;17.40;;;;;;5031358;28;77824;-74
2021/04/17 11:34:16;;;;;;;;;;;28.20;18.40;;;;;;5032867;28;75193;-77
2021/04/17 11:36:42;;;;;;;;;;;28.90;17.50;;;;;;5065237;27;78554;-77
2021/04/17 11:39:08;;;;;;;;;;;29.30;17.90;;;;;;5031272;28;77596;-76
2021/04/17 11:41:33;;;;;;;;;;;29.80;16.80;;;;;;5032877;28;75273;-75
2021/04/17 11:44:00;;;;;;;;;;;30.30;16.90;;;;;;5031362;28;77558;-78
2021/04/17 11:46:25;;;;;;;;;;;31.40;16.00;;;;;;5033582;28;74635;-75
2021/04/17 11:48:52;;;;;;;;;;;32.40;16.20;;;;;;5030916;28;77281;-75
2021/04/17 11:51:21;;;;;;;;;;;33.50;15.10;;;;;;5031390;28;77582;-76
2021/04/17 11:53:47;;;;;;;;;;;33.60;15.50;;;;;;5031715;28;76836;-78
2021/04/17 11:56:12;;;;;;;;;;;34.10;14.10;;;;;;5033130;28;75782;-76
2021/04/17 11:58:38;;;;;;;;;;;34.20;14.60;;;;;;5033027;28;74460;-78
2021/04/17 12:01:04;;;;;;;;;;;34.50;13.90;;;;;;5031237;28;77668;-78
2021/04/17 12:03:30;;;;;;;;;;;34.50;14.50;;;;;;5031386;28;76496;-78
2021/04/17 12:05:55;;;;;;;;;;;35.00;14.50;;;;;;5031245;28;78244;-77
2021/04/17 12:08:22;;;;;;;;;;;35.90;14.20;;;;;;5031392;28;76506;-77
2021/04/17 12:10:48;;;;;;;;;;;36.80;14.20;;;;;;5032380;28;77216;-76
2021/04/17 12:13:13;;;;;;;;;;;37.80;13.80;;;;;;5032089;28;75229;-74
2021/04/17 12:15:39;;;;;;;;;;;37.50;13.90;;;;;;5032444;28;75170;-76
2021/04/17 12:18:05;;;;;;;;;;;37.20;13.80;;;;;;5032606;28;76169;-76
2021/04/17 12:20:32;;;;;;;;;;;36.60;13.60;;;;;;5031074;28;75920;-79
2021/04/17 12:22:58;;;;;;;;;;;33.90;14.70;;;;;;5047625;28;77315;-77
2021/04/17 12:25:25;;;;;;;;;;;32.60;16.10;;;;;;5030705;28;75726;-76
2021/04/17 12:27:52;;;;;;;;;;;33.50;15.30;;;;;;5030552;28;75548;-75
2021/04/17 12:30:18;;;;;;;;;;;34.70;14.00;;;;;;5034937;28;74461;-77
2021/04/17 12:32:47;;;;;;;;;;;35.70;13.40;;;;;;5034956;28;75436;-79
2021/04/17 12:35:14;;;;;;;;;;;36.60;13.10;;;;;;5034189;28;75239;-77
2021/04/17 12:37:41;;;;;;;;;;;37.80;13.40;;;;;;5034327;28;76111;-77
2021/04/17 12:40:07;;;;;;;;;;;39.00;13.10;;;;;;5033979;28;77731;-80
2021/04/17 12:42:33;;;;;;;;;;;39.60;12.10;;;;;;5035444;28;78265;-78
2021/04/17 12:44:59;;;;;;;;;;;39.70;12.60;;;;;;5035728;28;75519;-74
2021/04/17 12:47:25;;;;;;;;;;;40.30;12.10;;;;;;5033979;28;76433;-77
2021/04/17 12:49:50;;;;;;;;;;;40.90;12.70;;;;;;5034358;28;78552;-79
2021/04/17 12:52:16;;;;;;;;;;;41.80;12.10;;;;;;5035081;28;78173;-76
2021/04/17 12:54:41;;;;;;;;;;;42.00;11.80;;;;;;5035365;28;77849;-78
2021/04/17 12:57:07;;;;;;;;;;;41.30;11.70;;;;;;5034964;28;79476;-77
2021/04/17 12:59:34;;;;;;;;;;;40.50;12.60;;;;;;5035235;28;75276;-77
2021/04/17 13:02:02;;;;;;;;;;;39.90;12.90;;;;;;5067114;27;75469;-79
2021/04/17 13:04:27;;;;;;;;;;;37.40;13.80;;;;;;5051340;28;77313;-77
2021/04/17 13:06:53;;;;;;;;;;;34.60;15.00;;;;;;5034696;28;78097;-79
2021/04/17 13:09:19;;;;;;;;;;;32.30;16.50;;;;;;5034132;28;77157;-78
2021/04/17 13:11:44;;;;;;;;;;;30.10;16.60;;;;;;5067881;27;76412;-78
2021/04/17 13:14:10;;;;;;;;;;;28.50;19.00;;;;;;5035486;28;74936;-76
2021/04/17 13:16:36;;;;;;;;;;;27.20;19.10;;;;;;5036031;28;74435;-76
2021/04/17 13:19:02;;;;;;;;;;;26.50;18.70;;;;;;5034937;28;75745;-80
2021/04/17 13:21:28;;;;;;;;;;;25.70;19.90;;;;;;5035754;28;75721;-77
2021/04/17 13:23:53;;;;;;;;;;;25.20;19.80;;;;;;5033895;28;77735;-79
2021/04/17 13:26:19;;;;;;;;;;;24.80;20.40;;;;;;5036298;28;76465;-76
2021/04/17 13:28:45;;;;;;;;;;;24.70;20.60;;;;;;5036141;28;75604;-76
2021/04/17 13:31:11;;;;;;;;;;;24.70;20.40;;;;;;5037162;28;74573;-77
2021/04/17 13:33:37;;;;;;;;;;;24.70;21.40;;;;;;5034784;28;77891;-80
2021/04/17 13:36:04;;;;;;;;;;;25.20;21.00;;;;;;5036842;28;75058;-74
2021/04/17 13:38:29;;;;;;;;;;;25.90;20.50;;;;;;5034033;28;76638;-79
2021/04/17 13:40:55;;;;;;;;;;;26.80;18.70;;;;;;5067953;27;77813;-76
2021/04/17 13:43:21;;;;;;;;;;;27.30;18.40;;;;;;5035154;28;74470;-76
2021/04/17 13:45:47;;;;;;;;;;;27.40;18.40;;;;;;5034090;28;77550;-78
2021/04/17 13:48:12;;;;;;;;;;;26.70;18.60;;;;;;5033886;28;77917;-78
2021/04/17 13:50:38;;;;;;;;;;;26.20;19.00;;;;;;5035526;28;75204;-76
2021/04/17 13:53:03;;;;;;;;;;;26.20;19.80;;;;;;5035577;28;75126;-77
2021/04/17 13:55:29;;;;;;;;;;;26.40;19.90;;;;;;5036279;28;74504;-78
2021/04/17 13:57:55;;;;;;;;;;;26.20;19.70;;;;;;5035283;28;75229;-74
2021/04/17 14:00:21;;;;;;;;;;;26.20;20.20;;;;;;5035557;28;75196;-74
2021/04/17 14:02:46;;;;;;;;;;;27.00;19.60;;;;;;5033881;28;77973;-76
2021/04/17 14:05:12;;;;;;;;;;;28.00;19.60;;;;;;5035502;28;75125;-77
2021/04/17 14:07:38;;;;;;;;;;;30.70;17.80;;;;;;5035957;28;75489;-78
2021/04/17 14:10:05;;;;;;;;;;;31.70;16.50;;;;;;5067421;27;75332;-76
2021/04/17 14:12:30;;;;;;;;;;;30.80;17.00;;;;;;5034454;28;75445;-76
2021/04/17 14:14:56;;;;;;;;;;;29.50;17.70;;;;;;5035335;28;74487;-74
2021/04/17 14:17:22;;;;;;;;;;;29.40;18.50;;;;;;5036909;28;75376;-75
2021/04/17 14:19:48;;;;;;;;;;;32.30;17.30;;;;;;5034712;28;77167;-74
2021/04/17 14:22:13;;;;;;;;;;;35.50;15.40;;;;;;5034647;28;76679;-76
2021/04/17 14:24:39;;;;;;;;;;;37.50;13.90;;;;;;5071379;27;76296;-74